createdAt,value
2022-12-11T04:31:17.378Z,12.90
2022-12-11T04:33:44.453Z,13.30
2022-12-11T04:36:12.382Z,13.82
2022-12-11T04:38:39.140Z,13.13
2022-12-11T04:41:11.210Z,13.50
2022-12-11T04:43:38.509Z,13.48
2022-12-11T04:46:11.300Z,13.77
2022-12-11T04:48:42.199Z,13.70
2022-12-11T04:51:09.484Z,12.98
2022-12-11T04:53:36.602Z,13.57
2022-12-11T04:56:08.202Z,13.82
2022-12-11T04:58:36.090Z,12.75
2022-12-11T05:01:14.790Z,11.60
2022-12-11T05:03:41.804Z,12.13
2022-12-11T05:06:09.890Z,12.43
2022-12-11T05:08:38.599Z,12.55
2022-12-11T05:11:08.120Z,11.82
2022-12-11T05:13:34.763Z,13.70
2022-12-11T05:16:04.634Z,13.25
2022-12-11T05:18:31.430Z,13.30
2022-12-11T05:21:00.674Z,13.65
2022-12-11T05:23:27.870Z,13.73
2022-12-11T05:25:56.002Z,14.52
2022-12-11T05:28:24.872Z,15.30
2022-12-11T05:30:57.881Z,15.23
2022-12-11T05:33:25.334Z,13.88
2022-12-11T05:35:52.319Z,14.38
2022-12-11T05:38:19.528Z,14.43
2022-12-11T05:40:55.150Z,15.00
2022-12-11T05:43:22.068Z,14.95
2022-12-11T05:45:48.679Z,14.80
2022-12-11T05:48:15.310Z,15.38
2022-12-11T05:50:42.621Z,15.15
2022-12-11T05:53:09.286Z,15.23
2022-12-11T05:55:36.411Z,15.38
2022-12-11T05:58:03.081Z,14.35
2022-12-11T06:00:35.763Z,15.20
2022-12-11T06:03:02.996Z,16.52
2022-12-11T06:05:29.694Z,16.38
2022-12-11T06:07:56.356Z,16.27
2022-12-11T06:10:23.080Z,15.85
2022-12-11T06:12:49.794Z,15.52
2022-12-11T06:15:16.824Z,16.33
2022-12-11T06:17:43.536Z,15.43
2022-12-11T06:20:10.451Z,15.90
2022-12-11T06:22:37.049Z,16.77
2022-12-11T06:25:04.267Z,17.17
2022-12-11T06:27:31.125Z,16.23
2022-12-11T06:29:57.763Z,17.20
2022-12-11T06:32:24.414Z,16.85
2022-12-11T06:34:51.046Z,16.30
2022-12-11T06:37:17.663Z,17.98
2022-12-11T06:39:44.582Z,17.13
2022-12-11T06:42:11.196Z,17.20
2022-12-11T06:44:37.844Z,16.50
2022-12-11T06:47:05.890Z,15.95
2022-12-11T06:49:32.746Z,16.88
2022-12-11T06:51:59.828Z,16.85
2022-12-11T06:54:27.787Z,17.05
2022-12-11T06:56:54.519Z,16.13
2022-12-11T06:59:21.188Z,15.05
2022-12-11T07:01:47.876Z,16.48
2022-12-11T07:04:14.646Z,16.30
2022-12-11T07:06:41.288Z,15.63
2022-12-11T07:09:07.902Z,15.35
2022-12-11T07:11:37.024Z,15.45
2022-12-11T07:14:03.860Z,17.13
2022-12-11T07:16:30.621Z,15.55
2022-12-11T07:18:57.469Z,16.85
2022-12-11T07:21:24.145Z,18.27
2022-12-11T07:23:51.224Z,16.80
2022-12-11T07:26:20.387Z,16.05
2022-12-11T07:28:47.415Z,15.98
2022-12-11T07:31:23.166Z,16.13
2022-12-11T07:33:57.596Z,16.65
2022-12-11T07:36:24.748Z,16.35
2022-12-11T07:38:51.864Z,15.88
2022-12-11T07:41:19.275Z,18.00
2022-12-11T07:43:46.060Z,17.58
2022-12-11T07:46:18.213Z,16.48
2022-12-11T07:48:46.908Z,17.00
2022-12-11T07:51:19.148Z,17.38
2022-12-11T07:53:48.112Z,17.67
2022-12-11T07:56:16.314Z,16.75
2022-12-11T07:58:43.574Z,16.27
2022-12-11T08:01:21.976Z,16.77
2022-12-11T08:03:49.562Z,15.20
2022-12-11T08:06:17.096Z,15.50
2022-12-11T08:08:44.438Z,15.30
2022-12-11T08:11:13.674Z,15.80
2022-12-11T08:13:42.513Z,15.60
2022-12-11T08:16:13.162Z,14.23
2022-12-11T08:18:41.406Z,15.02
2022-12-11T08:21:17.074Z,14.73
2022-12-11T08:23:44.602Z,13.15
2022-12-11T08:26:14.279Z,13.45
2022-12-11T08:28:41.051Z,14.75
2022-12-11T08:31:09.719Z,14.35
2022-12-11T08:33:37.818Z,14.52
2022-12-11T08:36:10.126Z,13.93
2022-12-11T08:38:37.301Z,15.02
2022-12-11T08:41:13.146Z,16.08
2022-12-11T08:43:39.884Z,15.52
2022-12-11T08:46:07.679Z,15.80
2022-12-11T08:48:35.370Z,14.35
2022-12-11T08:51:03.494Z,16.05
2022-12-11T08:53:30.590Z,15.90
2022-12-11T08:56:18.717Z,14.77
2022-12-11T08:58:46.090Z,16.30
2022-12-11T09:01:19.292Z,16.30
2022-12-11T09:03:46.166Z,15.88
2022-12-11T09:06:15.641Z,15.93
2022-12-11T09:08:51.728Z,16.95
2022-12-11T09:11:25.859Z,15.88
2022-12-11T09:13:53.573Z,16.10
2022-12-11T09:16:22.649Z,16.10
2022-12-11T09:18:50.995Z,17.20
2022-12-11T09:21:20.763Z,16.13
2022-12-11T09:23:47.964Z,18.45
2022-12-11T09:26:17.296Z,23.55
2022-12-11T09:28:47.025Z,17.42
2022-12-11T09:31:26.657Z,16.33
2022-12-11T09:33:56.597Z,15.68
2022-12-11T09:36:23.902Z,16.40
2022-12-11T09:38:50.734Z,15.90
2022-12-11T09:41:23.421Z,15.00
2022-12-11T09:44:01.876Z,14.73
2022-12-11T09:46:33.904Z,15.15
2022-12-11T09:49:03.127Z,16.80
2022-12-11T09:51:39.452Z,15.20
2022-12-11T09:54:06.434Z,16.58
2022-12-11T09:56:38.656Z,16.02
2022-12-11T09:59:26.572Z,15.60
2022-12-11T10:02:02.335Z,14.63
2022-12-11T10:04:47.997Z,15.43
2022-12-11T10:07:20.860Z,14.63
2022-12-11T10:10:25.333Z,15.15
2022-12-11T10:13:09.876Z,13.73
2022-12-11T10:15:49.213Z,14.05
2022-12-11T10:18:22.418Z,13.10
2022-12-11T10:20:52.859Z,14.00
2022-12-11T10:23:35.525Z,12.95
2022-12-11T10:26:17.018Z,13.95
2022-12-11T10:28:44.019Z,12.80
2022-12-11T10:31:28.865Z,12.57
2022-12-11T10:34:34.920Z,11.98
2022-12-11T10:37:02.326Z,12.68
2022-12-11T10:39:29.262Z,12.18
2022-12-11T10:41:56.871Z,13.02
2022-12-11T10:44:26.757Z,13.63
2022-12-11T10:47:10.551Z,12.05
2022-12-11T10:49:39.758Z,12.23
2022-12-11T10:52:21.986Z,11.93
2022-12-11T10:55:02.788Z,11.45
2022-12-11T10:57:35.756Z,11.32
2022-12-11T11:00:06.258Z,10.52
2022-12-11T11:02:36.590Z,11.93
2022-12-11T11:05:16.826Z,12.00
2022-12-11T11:07:44.054Z,11.25
2022-12-11T11:10:13.738Z,11.65
2022-12-11T11:12:50.150Z,11.50
2022-12-11T11:15:22.706Z,11.60
2022-12-11T11:17:55.753Z,11.88
2022-12-11T11:20:26.980Z,10.20
2022-12-11T11:23:00.027Z,10.82
2022-12-11T11:25:30.078Z,12.07
2022-12-11T11:28:02.530Z,11.13
2022-12-11T11:30:31.048Z,10.40
2022-12-11T11:33:04.664Z,11.07
2022-12-11T11:35:32.708Z,10.87
2022-12-11T11:38:19.068Z,12.93
2022-12-11T11:41:00.759Z,10.75
2022-12-11T11:44:02.571Z,11.82
2022-12-11T11:46:59.197Z,10.80
2022-12-11T11:49:47.038Z,11.18
2022-12-11T11:52:18.196Z,21.88
2022-12-11T11:55:18.677Z,47.75
2022-12-11T11:58:02.754Z,18.60
2022-12-11T12:00:33.929Z,17.35
2022-12-11T12:03:10.633Z,12.30
2022-12-11T12:05:57.438Z,10.73
2022-12-11T12:09:00.472Z,10.52
2022-12-11T12:12:00.715Z,9.60
2022-12-11T12:14:52.603Z,11.38
2022-12-11T12:17:56.483Z,12.07
2022-12-11T12:20:37.755Z,10.77
2022-12-11T12:23:38.233Z,13.15
2022-12-11T12:26:11.058Z,12.55
2022-12-11T12:29:13.080Z,12.10
2022-12-11T12:32:19.963Z,11.48
2022-12-11T12:35:14.150Z,11.70
2022-12-11T12:38:04.239Z,14.43
2022-12-11T12:40:48.539Z,12.77
2022-12-11T12:43:39.517Z,13.93
2022-12-11T12:46:27.870Z,12.18
2022-12-11T12:48:57.010Z,14.30
2022-12-11T12:51:24.880Z,13.95
2022-12-11T12:54:00.721Z,13.98
2022-12-11T12:56:30.505Z,14.35
2022-12-11T12:58:57.506Z,14.27
2022-12-11T13:01:26.428Z,14.82
2022-12-11T13:04:07.333Z,13.70
2022-12-11T13:06:41.715Z,13.88
2022-12-11T13:09:17.672Z,9.98
2022-12-11T13:11:47.261Z,13.25
2022-12-11T13:14:13.880Z,14.68
2022-12-11T13:16:45.802Z,15.30
2022-12-11T13:19:29.235Z,15.07
2022-12-11T13:22:14.793Z,17.17
2022-12-11T13:24:47.806Z,15.88
2022-12-11T13:27:31.734Z,15.35
2022-12-11T13:30:23.250Z,14.90
2022-12-11T13:33:03.415Z,16.02
2022-12-11T13:35:32.062Z,16.38
2022-12-11T13:38:05.019Z,15.20
2022-12-11T13:40:40.187Z,14.88
2022-12-11T13:43:17.969Z,15.05
2022-12-11T13:45:49.849Z,14.65
2022-12-11T13:48:30.914Z,17.10
2022-12-11T13:50:59.483Z,14.80
2022-12-11T13:53:26.555Z,15.30
2022-12-11T13:55:59.175Z,15.10
2022-12-11T13:58:26.883Z,14.80
2022-12-11T14:01:25.116Z,14.82
2022-12-11T14:03:57.316Z,15.52
2022-12-11T14:06:27.372Z,13.82
2022-12-11T14:08:59.817Z,14.70
2022-12-11T14:11:34.317Z,15.18
2022-12-11T14:14:03.676Z,15.60
2022-12-11T14:16:30.952Z,14.48
2022-12-11T14:19:05.271Z,15.95
2022-12-11T14:21:32.007Z,15.27
2022-12-11T14:24:01.021Z,14.48
2022-12-11T14:26:31.371Z,15.77
2022-12-11T14:28:58.491Z,16.88
2022-12-11T14:31:33.752Z,15.93
2022-12-11T14:34:05.007Z,15.40
2022-12-11T14:36:34.739Z,16.30
2022-12-11T14:39:11.111Z,16.35
2022-12-11T14:42:10.568Z,15.32
2022-12-11T14:44:46.064Z,16.83
2022-12-11T14:47:19.808Z,16.75
2022-12-11T14:49:51.326Z,15.25
2022-12-11T14:52:30.026Z,15.00
2022-12-11T14:55:03.708Z,14.35
2022-12-11T14:57:33.278Z,14.67
2022-12-11T15:00:00.271Z,14.15
2022-12-11T15:02:29.648Z,15.15
2022-12-11T15:05:12.657Z,13.45
2022-12-11T15:07:41.482Z,14.52
2022-12-11T15:10:22.267Z,14.23
2022-12-11T15:12:49.303Z,14.07
2022-12-11T15:15:17.718Z,14.20
2022-12-11T15:17:49.679Z,13.80
2022-12-11T15:20:25.832Z,15.02
2022-12-11T15:22:53.040Z,14.90
2022-12-11T15:25:23.106Z,14.68
2022-12-11T15:27:58.759Z,15.00
2022-12-11T15:30:31.350Z,16.08
2022-12-11T15:33:10.051Z,23.80
2022-12-11T15:35:38.820Z,24.65
2022-12-11T15:38:06.146Z,18.70
2022-12-11T15:40:32.959Z,19.55
2022-12-11T15:43:02.239Z,15.93
2022-12-11T15:45:29.422Z,16.80
2022-12-11T15:47:57.431Z,15.35
2022-12-11T15:50:27.747Z,15.27
2022-12-11T15:52:56.128Z,15.18
2022-12-11T15:55:26.050Z,14.95
2022-12-11T15:58:02.246Z,15.27
2022-12-11T16:00:29.496Z,16.73
2022-12-11T16:02:57.549Z,17.30
2022-12-11T16:05:25.649Z,14.98
2022-12-11T16:07:54.104Z,15.10
2022-12-11T16:10:21.647Z,15.52
2022-12-11T16:12:48.312Z,14.07
2022-12-11T16:15:22.800Z,14.70
2022-12-11T16:17:50.414Z,14.27
2022-12-11T16:20:17.318Z,13.20
2022-12-11T16:22:44.639Z,15.05
2022-12-11T16:25:11.555Z,13.13
2022-12-11T16:27:38.540Z,11.93
2022-12-11T16:30:05.621Z,11.90
2022-12-11T16:32:32.562Z,11.95
2022-12-11T16:35:01.094Z,10.85
2022-12-11T16:37:28.155Z,10.88
2022-12-11T16:39:54.852Z,11.68
2022-12-11T16:42:21.707Z,11.88
2022-12-11T16:44:49.000Z,14.55
2022-12-11T16:47:15.650Z,12.63
2022-12-11T16:49:43.279Z,12.98
2022-12-11T16:52:10.443Z,11.38
2022-12-11T16:54:37.316Z,12.25
2022-12-11T16:57:04.133Z,11.73
2022-12-11T16:59:35.282Z,12.43
2022-12-11T17:02:03.868Z,15.82
2022-12-11T17:04:30.541Z,12.20
2022-12-11T17:06:57.267Z,10.73
2022-12-11T17:09:23.847Z,11.98
2022-12-11T17:11:50.623Z,12.20
2022-12-11T17:14:17.394Z,11.50
2022-12-11T17:16:44.060Z,11.35
2022-12-11T17:19:10.853Z,11.68
2022-12-11T17:21:37.612Z,12.07
2022-12-11T17:24:04.452Z,11.57
2022-12-11T17:26:31.168Z,11.57
2022-12-11T17:28:58.207Z,14.55
2022-12-11T17:31:25.074Z,13.20
2022-12-11T17:33:53.902Z,15.55
2022-12-11T17:36:21.956Z,11.80
2022-12-11T17:38:49.892Z,11.70
2022-12-11T17:41:20.796Z,10.63
2022-12-11T17:43:54.129Z,12.38
2022-12-11T17:46:21.728Z,12.25
2022-12-11T17:48:49.042Z,10.35
2022-12-11T17:51:24.700Z,11.40
2022-12-11T17:53:52.526Z,10.93
2022-12-11T17:56:19.663Z,11.27
2022-12-11T17:58:46.666Z,10.82
2022-12-11T18:01:13.658Z,10.80
2022-12-11T18:03:40.919Z,11.13
2022-12-11T18:06:11.338Z,10.98
2022-12-11T18:08:38.997Z,11.32
2022-12-11T18:11:07.433Z,11.52
2022-12-11T18:13:34.991Z,11.35
2022-12-11T18:16:08.256Z,11.85
2022-12-11T18:18:35.718Z,11.73
2022-12-11T18:21:02.551Z,11.15
2022-12-11T18:23:29.328Z,11.43
2022-12-11T18:25:56.039Z,11.63
2022-12-11T18:28:22.905Z,11.15
2022-12-11T18:30:49.518Z,12.25
2022-12-11T18:33:18.834Z,11.65
2022-12-11T18:35:45.572Z,11.93
2022-12-11T18:38:12.694Z,11.70
2022-12-11T18:40:39.361Z,11.55
2022-12-11T18:43:05.955Z,12.00
2022-12-11T18:45:32.621Z,12.70
2022-12-11T18:47:59.575Z,11.07
2022-12-11T18:50:26.672Z,12.00
2022-12-11T18:52:54.714Z,11.60
2022-12-11T18:55:21.680Z,11.02
2022-12-11T18:57:48.395Z,11.43
2022-12-11T19:00:16.391Z,10.98
2022-12-11T19:02:43.251Z,11.25
2022-12-11T19:05:11.307Z,11.93
2022-12-11T19:07:38.323Z,11.50
2022-12-11T19:10:05.445Z,12.63
2022-12-11T19:12:32.090Z,12.15
2022-12-11T19:14:58.756Z,10.82
2022-12-11T19:17:25.502Z,10.55
2022-12-11T19:19:52.141Z,10.35
2022-12-11T19:22:18.877Z,10.73
2022-12-11T19:24:45.564Z,11.52
2022-12-11T19:27:13.805Z,10.18
2022-12-11T19:29:41.256Z,11.52
2022-12-11T19:32:08.176Z,12.95
2022-12-11T19:34:34.837Z,12.05
2022-12-11T19:37:01.523Z,12.15
2022-12-11T19:39:28.371Z,11.80
2022-12-11T19:41:55.186Z,11.32
2022-12-11T19:44:21.888Z,12.15
2022-12-11T19:46:48.595Z,12.25
2022-12-11T19:49:19.255Z,11.05
2022-12-11T19:51:48.482Z,10.98
2022-12-11T19:54:16.702Z,11.32
2022-12-11T19:56:44.284Z,11.75
2022-12-11T19:59:16.538Z,12.07
2022-12-11T20:01:46.826Z,11.40
2022-12-11T20:04:16.290Z,10.35
2022-12-11T20:06:47.631Z,11.00
2022-12-11T20:09:15.506Z,10.55
2022-12-11T20:11:44.191Z,10.10
2022-12-11T20:14:22.390Z,10.10
2022-12-11T20:19:39.708Z,10.20
2022-12-11T20:22:06.374Z,10.32
2022-12-11T20:24:33.628Z,10.10
2022-12-11T20:27:00.374Z,11.23
2022-12-11T20:29:27.023Z,11.32
2022-12-11T20:31:53.836Z,11.38
2022-12-11T20:34:20.589Z,11.02
2022-12-11T20:36:48.522Z,12.70
2022-12-11T20:39:15.660Z,13.88
2022-12-11T20:41:42.286Z,13.93
2022-12-11T20:44:08.900Z,12.43
2022-12-11T20:46:35.542Z,21.05
2022-12-11T20:49:02.328Z,12.95
2022-12-11T20:51:29.080Z,12.18
2022-12-11T20:53:59.552Z,12.90
2022-12-11T20:56:29.505Z,12.15
2022-12-11T20:58:56.967Z,12.38
2022-12-11T21:01:26.992Z,12.27
2022-12-11T21:03:54.450Z,12.38
2022-12-11T21:06:31.057Z,12.20
2022-12-11T21:09:00.253Z,14.45
2022-12-11T21:11:27.603Z,11.90
2022-12-11T21:13:54.728Z,11.02
2022-12-11T21:16:22.417Z,12.40
2022-12-11T21:18:49.144Z,11.70
2022-12-11T21:21:16.253Z,16.90
2022-12-11T21:23:43.016Z,15.32
2022-12-11T21:26:09.962Z,13.85
2022-12-11T21:28:36.765Z,14.88
2022-12-11T21:31:06.743Z,15.88
2022-12-11T21:33:33.833Z,13.43
2022-12-11T21:36:01.125Z,14.43
2022-12-11T21:38:29.399Z,13.73
2022-12-11T21:40:56.541Z,11.20
2022-12-11T21:43:24.067Z,12.68
2022-12-11T21:46:06.716Z,10.73
2022-12-11T21:48:33.713Z,11.18
2022-12-11T21:51:14.454Z,12.77
2022-12-11T21:53:41.697Z,12.38
2022-12-11T21:56:11.712Z,11.10
2022-12-11T21:58:40.136Z,10.77
2022-12-11T22:01:14.763Z,11.82
2022-12-11T22:03:41.658Z,11.32
2022-12-11T22:06:08.699Z,11.45
2022-12-11T22:08:35.400Z,12.02
2022-12-11T22:11:02.065Z,11.82
2022-12-11T22:13:28.722Z,12.32
2022-12-11T22:15:55.411Z,11.52
2022-12-11T22:18:22.460Z,12.32
2022-12-11T22:20:49.112Z,11.38
2022-12-11T22:23:15.770Z,12.75
2022-12-11T22:25:42.427Z,12.18
2022-12-11T22:28:09.010Z,12.98
2022-12-11T22:30:36.936Z,12.98
2022-12-11T22:33:03.980Z,12.95
2022-12-11T22:35:30.762Z,12.73
2022-12-11T22:37:57.382Z,12.98
2022-12-11T22:40:24.311Z,10.65
2022-12-11T22:42:50.902Z,12.85
2022-12-11T22:45:18.082Z,12.65
2022-12-11T22:47:44.896Z,12.40
2022-12-11T22:50:12.559Z,13.13
2022-12-11T22:52:39.439Z,13.15
2022-12-11T22:55:06.639Z,13.40
2022-12-11T22:57:36.511Z,12.55
2022-12-11T23:00:08.750Z,12.93
2022-12-11T23:02:35.396Z,13.20
2022-12-11T23:05:03.676Z,12.75
2022-12-11T23:07:30.673Z,12.60
2022-12-11T23:09:57.381Z,12.48
2022-12-11T23:12:23.981Z,12.60
2022-12-11T23:14:51.256Z,12.43
2022-12-11T23:17:18.076Z,12.52
2022-12-11T23:19:46.078Z,12.68
2022-12-11T23:22:13.588Z,13.05
2022-12-11T23:24:40.627Z,13.15
2022-12-11T23:27:07.453Z,13.23
2022-12-11T23:29:34.561Z,12.90
2022-12-11T23:32:01.231Z,12.13
2022-12-11T23:34:28.079Z,12.98
2022-12-11T23:36:55.041Z,13.45
2022-12-11T23:39:21.698Z,12.80
2022-12-11T23:41:48.393Z,12.70
2022-12-11T23:44:15.019Z,13.00
2022-12-11T23:46:42.677Z,13.05
2022-12-11T23:49:09.386Z,13.47
2022-12-11T23:51:36.056Z,13.05
2022-12-11T23:54:03.037Z,12.73
2022-12-11T23:56:30.021Z,12.57
2022-12-11T23:58:57.478Z,12.75
